Time;durP1;ratioP1;P1;durP2;ratioP2;P2;SDS_P1;SDS_P2;PMS_P1;PMS_P2;Temp;Humidity;BMP_temperature;BMP_pressure;BME280_temperature;BME280_humidity;BME280_pressure;Samples;Min_cycle;Max_cycle;Signal;HPM_P1;HPM_P2
2023/09/19 00:01:19;;;;;;;0.50;0.40;;;;;;;16.66;100.00;99738.13;4997475;28;20021;-70
2023/09/19 00:03:50;;;;;;;1.40;0.52;;;;;;;16.70;100.00;99731.69;4845435;28;20921;-70
2023/09/19 00:06:20;;;;;;;1.07;0.30;;;;;;;16.75;100.00;99725.09;5009601;28;20043;-72
2023/09/19 00:08:50;;;;;;;1.65;0.40;;;;;;;16.77;100.00;99724.03;4973981;28;20830;-72
2023/09/19 00:11:21;;;;;;;1.00;0.50;;;;;;;16.78;100.00;99731.00;4933230;28;20557;-72
2023/09/19 00:13:51;;;;;;;0.70;0.30;;;;;;;16.78;100.00;99730.16;4972450;28;21519;-72
2023/09/19 00:16:22;;;;;;;2.85;0.50;;;;;;;16.78;100.00;99730.16;4985327;28;20657;-72
2023/09/19 00:18:53;;;;;;;0.73;0.32;;;;;;;16.81;100.00;99736.03;4911086;28;20863;-72
2023/09/19 00:21:23;;;;;;;1.52;0.30;;;;;;;16.79;100.00;99745.03;5020813;28;20565;-72
2023/09/19 00:23:54;;;;;;;1.73;0.40;;;;;;;16.78;100.00;99744.19;5175131;28;20025;-74
2023/09/19 00:26:24;;;;;;;1.85;0.50;;;;;;;16.85;100.00;99737.53;5172945;28;20455;-71
2023/09/19 00:28:55;;;;;;;1.77;0.60;;;;;;;16.87;100.00;99742.66;5171268;28;20433;-74
2023/09/19 00:31:25;;;;;;;0.93;0.50;;;;;;;16.92;100.00;99733.44;5176349;28;20030;-74
2023/09/19 00:33:59;;;;;;;1.60;0.50;;;;;;;16.90;100.00;99730.09;5178729;28;20096;-74
2023/09/19 00:39:08;;;;;;;0.80;0.40;;;;;;;16.96;100.00;99737.53;5223180;28;20049;-72
2023/09/19 00:41:38;;;;;;;1.08;0.45;;;;;;;16.85;100.00;99731.38;5221114;28;20472;-72
2023/09/19 00:44:10;;;;;;;0.75;0.47;;;;;;;16.95;100.00;99749.06;5228276;28;20032;-72
2023/09/19 00:46:41;;;;;;;1.33;0.50;;;;;;;16.86;100.00;99744.47;5227810;28;20025;-72
2023/09/19 00:49:12;;;;;;;1.23;0.50;;;;;;;16.89;100.00;99743.38;5218428;28;20017;-72
2023/09/19 00:51:47;;;;;;;3.95;0.55;;;;;;;16.78;100.00;99756.56;5226028;28;20029;-72
2023/09/19 00:54:18;;;;;;;4.57;0.75;;;;;;;16.86;100.00;99756.81;5205448;28;20025;-72
2023/09/19 00:56:50;;;;;;;4.20;0.70;;;;;;;16.89;100.00;99749.53;5220986;28;20086;-72
2023/09/19 00:59:22;;;;;;;1.35;0.70;;;;;;;17.04;100.00;99758.09;5222486;28;20107;-72
2023/09/19 01:01:54;;;;;;;2.22;1.00;;;;;;;17.05;100.00;99750.06;5221607;28;20033;-72
2023/09/19 01:04:25;;;;;;;3.53;0.98;;;;;;;17.01;100.00;99750.41;5219048;28;20029;-71
2023/09/19 01:06:55;;;;;;;3.00;1.08;;;;;;;16.95;100.00;99753.50;5223455;28;20095;-72
2023/09/19 01:09:26;;;;;;;3.33;1.05;;;;;;;16.92;100.00;99749.28;5220546;28;20078;-71
2023/09/19 01:12:02;;;;;;;2.38;0.88;;;;;;;16.93;100.00;99758.03;5222815;28;20275;-72
2023/09/19 01:14:57;;;;;;;2.80;0.80;;;;;;;16.95;100.00;99742.97;5202738;28;20061;-72
2023/09/19 01:17:32;;;;;;;3.33;1.17;;;;;;;16.95;100.00;99743.78;5218268;28;20102;-71
2023/09/19 01:20:18;;;;;;;3.40;1.00;;;;;;;16.89;100.00;99746.03;5227385;28;20025;-72
2023/09/19 01:23:07;;;;;;;;;;;;;;;16.93;100.00;99740.41;5209364;28;20451;-72
2023/09/19 01:25:51;;;;;;;3.58;1.25;;;;;;;17.05;100.00;99750.06;5220792;28;20397;-72
2023/09/19 01:28:57;;;;;;;4.85;1.40;;;;;;;17.04;100.00;99761.59;5204726;28;20021;-72
2023/09/19 01:31:33;;;;;;;5.32;1.50;;;;;;;17.08;100.00;99763.03;5218927;28;20047;-72
2023/09/19 01:34:04;;;;;;;5.00;1.67;;;;;;;17.03;100.00;99761.69;5222677;28;20098;-72
2023/09/19 01:36:36;;;;;;;5.93;1.92;;;;;;;17.03;100.00;99764.34;5208571;28;20080;-72
2023/09/19 01:39:13;;;;;;;7.75;1.80;;;;;;;17.02;100.00;99765.28;5221762;28;20021;-72
2023/09/19 01:41:46;;;;;;;4.00;1.58;;;;;;;16.95;100.00;99775.47;5221996;28;21096;-72
2023/09/19 01:44:44;;;;;;;5.25;1.33;;;;;;;16.97;100.00;99783.28;5220361;28;20589;-72
2023/09/19 01:47:32;;;;;;;1.35;0.90;;;;;;;16.91;100.00;99791.63;5200953;28;20025;-72
2023/09/19 01:50:11;;;;;;;1.65;0.90;;;;;;;16.82;100.00;99789.69;5209109;28;20028;-72
2023/09/19 01:53:07;;;;;;;4.80;0.88;;;;;;;16.91;100.00;99802.19;5226133;28;20117;-72
2023/09/19 01:55:50;;;;;;;2.95;1.00;;;;;;;16.86;100.00;99799.06;5220518;28;20031;-72
2023/09/19 01:58:29;;;;;;;1.52;0.70;;;;;;;16.90;100.00;99801.38;5202058;28;20025;-73
2023/09/19 02:01:01;;;;;;;1.60;0.70;;;;;;;16.77;100.00;99802.38;5222812;28;20033;-72
2023/09/19 02:03:33;;;;;;;2.58;0.60;;;;;;;16.74;100.00;99802.56;5219981;28;20024;-72
2023/09/19 02:06:05;;;;;;;3.10;0.80;;;;;;;16.82;100.00;99805.53;5222457;28;20025;-72
2023/09/19 02:08:35;;;;;;;2.53;0.60;;;;;;;16.78;100.00;99806.72;5203856;28;20022;-72
2023/09/19 02:11:06;;;;;;;2.20;0.77;;;;;;;16.80;100.00;99807.44;5220884;28;20040;-72
2023/09/19 02:13:36;;;;;;;2.65;0.50;;;;;;;16.75;100.00;99809.53;5220385;28;20497;-72
2023/09/19 02:16:07;;;;;;;1.77;0.65;;;;;;;16.71;100.00;99812.53;5206311;28;20091;-72
2023/09/19 02:18:37;;;;;;;2.03;0.80;;;;;;;16.63;100.00;99810.44;5223650;28;20292;-72
2023/09/19 02:21:09;;;;;;;2.45;1.02;;;;;;;16.57;100.00;99821.44;5225147;28;20024;-72
2023/09/19 02:23:40;;;;;;;1.42;0.60;;;;;;;16.67;100.00;99822.47;5219434;28;20495;-72
2023/09/19 02:26:12;;;;;;;2.08;0.70;;;;;;;16.66;100.00;99828.69;5205482;28;20024;-72
2023/09/19 02:28:42;;;;;;;1.77;0.63;;;;;;;16.63;100.00;99820.16;5222578;28;20028;-72
2023/09/19 02:31:12;;;;;;;2.63;0.80;;;;;;;16.67;100.00;99813.69;5221815;28;20386;-71
2023/09/19 02:33:43;;;;;;;2.65;0.82;;;;;;;16.64;100.00;99827.09;5222021;28;20756;-72
2023/09/19 02:36:16;;;;;;;4.03;0.80;;;;;;;16.64;100.00;99825.31;5224486;28;20029;-72
2023/09/19 02:38:47;;;;;;;4.63;0.80;;;;;;;16.62;100.00;99823.75;5219289;28;20027;-72
2023/09/19 02:41:18;;;;;;;2.90;1.05;;;;;;;16.58;100.00;99828.38;5223741;28;20021;-71
2023/09/19 02:43:48;;;;;;;3.20;0.98;;;;;;;16.58;100.00;99827.56;5223677;28;20074;-72
2023/09/19 02:46:19;;;;;;;2.33;0.70;;;;;;;16.45;100.00;99832.03;5222163;28;20448;-72
2023/09/19 02:48:49;;;;;;;4.63;0.98;;;;;;;16.31;100.00;99835.59;5224549;28;20111;-72
2023/09/19 02:51:20;;;;;;;4.05;0.77;;;;;;;16.40;100.00;99837.63;5223824;28;20028;-71
2023/09/19 02:53:54;;;;;;;3.00;0.95;;;;;;;16.29;100.00;99842.78;5222678;28;20043;-72
2023/09/19 02:56:25;;;;;;;2.72;0.80;;;;;;;16.43;100.00;99844.47;5223636;28;20482;-71
2023/09/19 02:58:55;;;;;;;3.72;0.90;;;;;;;16.38;100.00;99846.59;5206256;28;20130;-72
2023/09/19 03:01:27;;;;;;;5.07;0.85;;;;;;;16.39;100.00;99843.00;5220286;28;20040;-72
2023/09/19 03:03:58;;;;;;;3.17;0.85;;;;;;;16.25;100.00;99851.84;5223924;28;20021;-72
2023/09/19 03:06:30;;;;;;;3.17;1.00;;;;;;;16.18;100.00;99847.13;5221945;28;20203;-72
2023/09/19 03:09:02;;;;;;;2.47;0.95;;;;;;;16.18;100.00;99855.88;5205906;28;20489;-72
2023/09/19 03:11:33;;;;;;;2.20;0.85;;;;;;;16.16;100.00;99856.91;5203788;28;20035;-72
2023/09/19 03:14:04;;;;;;;3.92;1.00;;;;;;;16.03;100.00;99859.56;5221207;28;20240;-72
2023/09/19 03:16:34;;;;;;;2.85;0.88;;;;;;;16.10;100.00;99863.47;5219574;28;20040;-72
2023/09/19 03:19:05;;;;;;;3.05;0.95;;;;;;;16.01;100.00;99863.28;5232206;28;20381;-72
2023/09/19 03:21:35;;;;;;;3.08;0.88;;;;;;;15.98;100.00;99872.22;5231183;28;20047;-72
2023/09/19 03:24:09;;;;;;;3.10;0.80;;;;;;;15.95;100.00;99869.81;5225196;28;20075;-72
2023/09/19 03:26:40;;;;;;;4.00;1.00;;;;;;;15.77;100.00;99873.69;5207227;28;20022;-72
2023/09/19 03:29:10;;;;;;;3.53;1.00;;;;;;;15.62;100.00;99865.97;5225940;28;20024;-72
2023/09/19 03:31:41;;;;;;;2.17;1.08;;;;;;;15.64;100.00;99869.34;5202526;28;20477;-72
2023/09/19 03:34:11;;;;;;;3.95;1.13;;;;;;;15.64;100.00;99864.06;5220868;28;20046;-72
2023/09/19 03:36:42;;;;;;;3.60;1.17;;;;;;;15.51;100.00;99868.50;5218431;28;20029;-72
2023/09/19 03:39:14;;;;;;;6.03;1.38;;;;;;;15.58;100.00;99868.00;5212129;28;20401;-72
2023/09/19 03:41:45;;;;;;;5.97;1.42;;;;;;;15.51;100.00;99858.78;5218682;28;20048;-72
2023/09/19 03:44:15;;;;;;;3.72;1.40;;;;;;;15.58;100.00;99860.09;5225274;28;20024;-72
2023/09/19 03:46:45;;;;;;;6.10;1.30;;;;;;;15.71;100.00;99854.81;5201212;28;20029;-72
2023/09/19 03:49:15;;;;;;;3.10;1.23;;;;;;;15.74;100.00;99852.81;5225695;28;20028;-72
2023/09/19 03:51:46;;;;;;;5.45;1.30;;;;;;;15.82;100.00;99855.78;5220216;28;20112;-72
2023/09/19 03:54:16;;;;;;;2.95;1.17;;;;;;;15.82;100.00;99842.59;5226014;28;20023;-71
2023/09/19 03:56:47;;;;;;;6.97;1.33;;;;;;;15.87;100.00;99848.38;5219017;28;20028;-72
2023/09/19 03:59:18;;;;;;;4.25;1.30;;;;;;;15.81;100.00;99851.47;5213225;28;20021;-71
2023/09/19 04:01:50;;;;;;;4.07;1.48;;;;;;;15.84;100.00;99851.25;5224454;28;20036;-72
2023/09/19 04:04:20;;;;;;;4.53;1.45;;;;;;;15.83;100.00;99857.47;5230336;28;20137;-72
2023/09/19 04:06:51;;;;;;;2.93;1.00;;;;;;;15.80;100.00;99864.72;5229504;28;20513;-72
2023/09/19 04:09:21;;;;;;;2.88;1.40;;;;;;;15.80;100.00;99870.84;5227278;28;20349;-72
2023/09/19 04:11:51;;;;;;;3.85;1.50;;;;;;;15.80;100.00;99876.13;5210451;28;20035;-72
2023/09/19 04:14:22;;;;;;;5.05;1.73;;;;;;;15.79;100.00;99890.25;5229250;28;20382;-72
2023/09/19 04:16:53;;;;;;;3.85;1.45;;;;;;;15.81;100.00;99888.34;5228023;28;20413;-72
2023/09/19 04:19:23;;;;;;;3.60;1.40;;;;;;;15.85;100.00;99884.56;5228678;28;20449;-72
2023/09/19 04:21:53;;;;;;;4.97;1.60;;;;;;;15.78;100.00;99892.97;5227900;28;20079;-72
2023/09/19 04:24:23;;;;;;;6.17;1.70;;;;;;;15.77;100.00;99886.00;5229838;28;20305;-72
2023/09/19 04:26:54;;;;;;;4.53;1.53;;;;;;;15.80;100.00;99885.81;5224258;28;20282;-72
2023/09/19 04:29:26;;;;;;;4.80;1.70;;;;;;;15.80;100.00;99888.44;5225733;28;20647;-72
2023/09/19 04:31:59;;;;;;;6.47;1.95;;;;;;;15.79;100.00;99892.88;5204767;28;20318;-72
2023/09/19 04:34:30;;;;;;;3.15;2.08;;;;;;;15.74;100.00;99900.22;5210526;28;20044;-72
2023/09/19 04:37:01;;;;;;;5.43;2.00;;;;;;;15.75;100.00;99901.94;5227856;28;20028;-72
2023/09/19 04:39:32;;;;;;;11.63;2.22;;;;;;;15.77;100.00;99912.38;5223185;28;20448;-72
2023/09/19 04:42:03;;;;;;;8.00;2.10;;;;;;;15.83;100.00;99918.06;5229209;28;20028;-72
2023/09/19 04:44:34;;;;;;;5.63;2.35;;;;;;;15.86;100.00;99928.41;5206996;28;20024;-72
2023/09/19 04:47:04;;;;;;;4.32;2.20;;;;;;;15.91;100.00;99933.38;5211592;28;20035;-72
2023/09/19 04:49:36;;;;;;;6.32;2.08;;;;;;;15.89;100.00;99938.72;5225308;28;20033;-72
2023/09/19 04:52:06;;;;;;;5.20;2.03;;;;;;;15.92;100.00;99928.00;5229822;28;20058;-73
2023/09/19 04:54:37;;;;;;;5.97;2.40;;;;;;;15.88;100.00;99934.41;5218457;28;20416;-72
2023/09/19 04:57:07;;;;;;;4.45;1.70;;;;;;;15.91;100.00;99925.47;5218623;28;20049;-72
2023/09/19 04:59:38;;;;;;;6.27;2.37;;;;;;;15.93;100.00;99924.44;5214587;28;20399;-72
2023/09/19 05:02:09;;;;;;;5.13;1.67;;;;;;;15.91;100.00;99931.56;5218201;28;20609;-72
2023/09/19 05:04:39;;;;;;;3.22;1.80;;;;;;;15.89;100.00;99927.38;5214721;28;20486;-72
2023/09/19 05:07:10;;;;;;;4.73;1.93;;;;;;;15.87;100.00;99938.00;5214849;28;20371;-72
2023/09/19 05:09:42;;;;;;;6.75;1.90;;;;;;;15.87;100.00;99930.09;5216011;28;20333;-72
2023/09/19 05:12:12;;;;;;;5.82;2.25;;;;;;;15.89;100.00;99937.91;5204050;28;20141;-72
2023/09/19 05:14:43;;;;;;;9.07;2.53;;;;;;;15.92;100.00;99942.97;5207130;28;20402;-72
2023/09/19 05:17:16;;;;;;;9.25;2.70;;;;;;;15.90;100.00;99936.94;5211958;28;20028;-72
2023/09/19 05:19:47;;;;;;;9.88;2.90;;;;;;;16.00;100.00;99938.00;5200024;28;20036;-72
2023/09/19 05:22:18;;;;;;;8.70;3.00;;;;;;;16.01;100.00;99937.91;5223597;28;20025;-72
2023/09/19 05:24:48;;;;;;;12.13;2.83;;;;;;;16.11;100.00;99932.84;5202986;28;20036;-72
2023/09/19 05:27:20;;;;;;;7.93;2.75;;;;;;;16.14;100.00;99938.78;5223679;28;20028;-73
2023/09/19 05:29:52;;;;;;;9.65;2.30;;;;;;;16.21;100.00;99939.19;5222884;28;20110;-72
2023/09/19 05:32:23;;;;;;;6.72;2.80;;;;;;;16.10;100.00;99937.31;5222167;28;20028;-71
2023/09/19 05:34:56;;;;;;;6.93;2.25;;;;;;;16.18;100.00;99936.78;5202745;28;20039;-72
2023/09/19 05:37:26;;;;;;;5.88;2.55;;;;;;;16.15;100.00;99944.88;5221471;28;20659;-72
2023/09/19 05:39:57;;;;;;;7.88;2.65;;;;;;;16.16;100.00;99939.50;5205714;28;20163;-72
2023/09/19 05:42:27;;;;;;;6.97;2.30;;;;;;;16.26;100.00;99947.63;5203334;28;20060;-71
2023/09/19 05:44:58;;;;;;;6.85;2.70;;;;;;;16.26;100.00;99950.28;5216219;28;20025;-73
2023/09/19 05:47:28;;;;;;;7.38;2.90;;;;;;;16.22;100.00;99954.06;5205899;28;20321;-73
2023/09/19 05:49:59;;;;;;;9.10;2.17;;;;;;;16.27;100.00;99959.88;5212065;28;20039;-72
2023/09/19 05:52:29;;;;;;;6.60;2.40;;;;;;;16.13;100.00;99962.59;5214863;28;20036;-72
2023/09/19 05:55:00;;;;;;;5.20;2.00;;;;;;;16.25;100.00;99967.88;5223450;28;20033;-72
2023/09/19 05:57:30;;;;;;;4.82;2.03;;;;;;;16.21;100.00;99974.31;5221863;28;20334;-72
2023/09/19 06:00:01;;;;;;;9.38;2.25;;;;;;;16.16;100.00;99979.06;5205286;28;20090;-72
2023/09/19 06:02:33;;;;;;;8.13;2.40;;;;;;;16.23;100.00;99990.88;5222343;28;20123;-72
2023/09/19 06:05:10;;;;;;;6.78;2.00;;;;;;;16.08;100.00;99984.00;5203344;28;20596;-72
2023/09/19 06:07:40;;;;;;;6.40;1.85;;;;;;;16.25;100.00;99982.88;5219389;28;20032;-72
2023/09/19 06:10:11;;;;;;;7.68;1.83;;;;;;;16.20;100.00;99984.97;5205161;28;20020;-72
2023/09/19 06:12:45;;;;;;;4.97;1.92;;;;;;;16.18;100.00;99990.34;5219628;28;20067;-71
2023/09/19 06:15:18;;;;;;;4.45;1.95;;;;;;;16.23;100.00;99997.94;5216596;28;20213;-72
2023/09/19 06:17:50;;;;;;;6.20;2.03;;;;;;;16.22;100.00;100001.53;5216638;28;20036;-72
2023/09/19 06:20:23;;;;;;;7.20;2.40;;;;;;;16.11;100.00;99991.72;5224757;28;20485;-72
2023/09/19 06:22:53;;;;;;;7.90;2.53;;;;;;;16.08;100.00;100012.16;5215132;28;20138;-72
2023/09/19 06:25:24;;;;;;;6.13;2.10;;;;;;;16.08;100.00;100015.63;5221789;28;20605;-72
2023/09/19 06:27:55;;;;;;;8.43;2.10;;;;;;;16.10;100.00;100024.31;5203830;28;20422;-72
2023/09/19 06:30:26;;;;;;;9.48;2.58;;;;;;;16.21;100.00;100034.97;5222705;28;20105;-71
2023/09/19 06:32:57;;;;;;;8.77;2.30;;;;;;;16.24;97.90;100052.38;5221005;28;20025;-72
2023/09/19 06:35:29;;;;;;;9.25;2.20;;;;;;;16.60;96.61;100049.91;5202975;28;20095;-72
2023/09/19 06:38:03;;;;;;;6.00;2.10;;;;;;;16.60;97.30;100049.91;5235557;22;20522;-72
2023/09/19 06:40:36;;;;;;;6.72;2.20;;;;;;;16.53;97.72;100052.13;5211909;28;20391;-73
2023/09/19 06:43:06;;;;;;;8.43;2.08;;;;;;;16.77;96.50;100060.16;5217366;28;20028;-72
2023/09/19 06:45:37;;;;;;;6.07;1.92;;;;;;;16.92;95.22;100059.94;5213738;28;20211;-72
2023/09/19 06:48:07;;;;;;;6.45;2.10;;;;;;;16.93;95.29;100059.84;5224249;28;20378;-72
2023/09/19 06:50:38;;;;;;;8.85;1.90;;;;;;;17.26;94.18;100070.69;5219124;28;20060;-72
2023/09/19 06:53:09;;;;;;;6.80;1.80;;;;;;;17.50;93.27;100070.78;5218848;28;20028;-72
2023/09/19 06:55:40;;;;;;;9.20;2.05;;;;;;;17.79;92.87;100064.22;5217155;28;20203;-73
2023/09/19 06:58:11;;;;;;;6.50;1.95;;;;;;;17.62;92.80;100059.31;5225120;28;20024;-72
2023/09/19 07:00:41;;;;;;;7.03;1.80;;;;;;;17.60;92.34;100069.13;5216619;28;20350;-72
2023/09/19 07:03:13;;;;;;;8.80;1.90;;;;;;;17.51;91.83;100064.53;5225416;28;20269;-73
2023/09/19 07:05:44;;;;;;;8.88;1.67;;;;;;;17.70;91.05;100064.88;5216977;28;20285;-72
2023/09/19 07:08:15;;;;;;;6.13;1.85;;;;;;;18.27;88.24;100063.22;5225588;28;20020;-72
2023/09/19 07:10:48;;;;;;;9.85;1.77;;;;;;;19.93;81.45;100047.28;5213059;28;20028;-73
2023/09/19 07:13:18;;;;;;;4.57;1.52;;;;;;;20.06;76.69;100047.97;5223683;28;20051;-72
2023/09/19 07:15:49;;;;;;;4.57;1.35;;;;;;;21.14;74.58;100023.53;5221937;28;20120;-72
2023/09/19 07:18:20;;;;;;;5.60;1.58;;;;;;;21.94;70.81;100033.13;5223357;28;20414;-73
2023/09/19 07:20:51;;;;;;;10.07;2.30;;;;;;;22.98;68.46;100028.53;5220182;28;20037;-72
2023/09/19 07:23:22;;;;;;;7.13;1.73;;;;;;;22.92;66.87;100034.44;5217320;28;20021;-73
2023/09/19 07:25:56;;;;;;;3.63;1.42;;;;;;;24.28;64.70;100033.41;5222422;28;20039;-73
2023/09/19 07:28:28;;;;;;;8.70;1.95;;;;;;;23.58;65.17;100049.34;5222134;28;20579;-71
2023/09/19 07:31:03;;;;;;;8.40;2.28;;;;;;;23.21;66.54;100058.38;5219675;28;20033;-73
2023/09/19 07:33:33;;;;;;;5.57;1.80;;;;;;;24.02;64.28;100059.19;5220013;28;20029;-73
2023/09/19 07:36:03;;;;;;;7.80;1.93;;;;;;;23.66;64.04;100064.56;5223281;28;20067;-71
2023/09/19 07:38:35;;;;;;;6.65;1.95;;;;;;;23.34;63.62;100073.03;5220317;28;20291;-73
2023/09/19 07:41:05;;;;;;;6.13;1.80;;;;;;;23.75;63.35;100071.72;5215253;28;20162;-73
2023/09/19 07:43:37;;;;;;;7.45;1.90;;;;;;;25.17;60.79;100065.13;5205542;28;20029;-72
2023/09/19 07:46:11;;;;;;;4.97;1.75;;;;;;;25.12;61.98;100064.78;5221358;28;20116;-73
2023/09/19 07:48:44;;;;;;;5.72;1.60;;;;;;;25.16;60.53;100071.47;5219028;28;20878;-73
2023/09/19 07:51:15;;;;;;;4.93;1.60;;;;;;;24.07;63.33;100072.09;5210255;28;20044;-73
2023/09/19 07:53:48;;;;;;;4.38;1.33;;;;;;;24.62;61.14;100073.59;5218753;28;20029;-73
2023/09/19 07:56:20;;;;;;;7.40;1.70;;;;;;;26.08;59.73;100079.41;5216154;28;20031;-74
2023/09/19 07:58:51;;;;;;;5.85;1.55;;;;;;;26.56;57.88;100092.91;5219832;28;20040;-74
2023/09/19 08:01:23;;;;;;;3.85;1.38;;;;;;;26.24;60.01;100092.00;5215711;28;20025;-72
2023/09/19 08:03:54;;;;;;;6.60;1.55;;;;;;;26.36;57.32;100088.81;5222407;28;20339;-73
2023/09/19 08:06:24;;;;;;;5.13;1.50;;;;;;;25.16;59.76;100093.69;5218313;28;20055;-73
2023/09/19 08:08:55;;;;;;;6.27;1.57;;;;;;;25.01;59.74;100091.78;5224831;28;20291;-72
2023/09/19 08:11:25;;;;;;;6.18;1.60;;;;;;;25.72;59.88;100095.84;5217546;28;20287;-73
2023/09/19 08:13:55;;;;;;;8.00;1.63;;;;;;;24.85;60.92;100100.53;5217759;28;20512;-73
2023/09/19 08:16:26;;;;;;;7.67;1.80;;;;;;;24.55;59.75;100113.47;5227145;28;20063;-73
2023/09/19 08:18:56;;;;;;;4.55;1.42;;;;;;;22.92;64.21;100118.91;5223072;28;20295;-72
2023/09/19 08:21:29;;;;;;;8.67;1.77;;;;;;;22.69;64.65;100113.03;5220686;28;20063;-71
2023/09/19 08:24:01;;;;;;;7.10;1.40;;;;;;;22.62;63.93;100115.56;5222372;28;20305;-73
2023/09/19 08:26:32;;;;;;;4.85;1.27;;;;;;;22.37;64.35;100124.94;5225945;28;20334;-71
2023/09/19 08:29:04;;;;;;;5.35;1.48;;;;;;;22.65;64.41;100104.63;5224332;28;20027;-72
2023/09/19 08:31:35;;;;;;;6.78;1.88;;;;;;;22.68;62.75;100111.34;5215217;28;20847;-72
2023/09/19 08:34:05;;;;;;;7.93;1.58;;;;;;;21.72;66.04;100115.88;5225717;28;20032;-72
2023/09/19 08:36:37;;;;;;;7.43;1.40;;;;;;;21.49;67.43;100122.31;5221259;28;20071;-72
2023/09/19 08:39:08;;;;;;;6.90;1.38;;;;;;;22.36;65.78;100119.75;5226452;28;20291;-71
2023/09/19 08:41:38;;;;;;;5.18;1.10;;;;;;;21.64;66.49;100111.22;5212791;28;20117;-72
2023/09/19 08:44:10;;;;;;;5.53;1.37;;;;;;;21.67;67.25;100118.06;5224274;28;20534;-72
2023/09/19 08:46:41;;;;;;;9.38;1.25;;;;;;;21.95;66.47;100120.81;5219490;28;20275;-72
2023/09/19 08:49:33;;;;;;;7.35;1.45;;;;;;;22.43;66.55;100107.59;5228370;28;20451;-71
2023/09/19 08:52:16;;;;;;;5.35;1.60;;;;;;;21.88;66.56;100111.72;5221522;28;20046;-72
2023/09/19 08:54:48;;;;;;;8.23;1.50;;;;;;;22.07;65.46;100113.56;5223712;28;20190;-72
2023/09/19 08:57:22;;;;;;;7.13;1.60;;;;;;;22.87;66.09;100124.66;5216219;28;20071;-72
2023/09/19 08:59:54;;;;;;;7.63;1.40;;;;;;;22.17;66.43;100125.06;5223272;28;20033;-72
2023/09/19 09:02:25;;;;;;;4.50;1.33;;;;;;;23.32;64.63;100109.69;5217983;28;20041;-71
2023/09/19 09:04:58;;;;;;;7.03;1.52;;;;;;;23.37;63.63;100110.09;5223088;28;20031;-72
2023/09/19 09:07:29;;;;;;;10.23;1.35;;;;;;;22.78;62.96;100116.66;5221080;28;20103;-73
2023/09/19 09:10:00;;;;;;;6.25;1.60;;;;;;;22.35;64.18;100110.06;5223145;28;20033;-72
2023/09/19 09:12:30;;;;;;;4.93;1.50;;;;;;;22.20;65.45;100108.78;5219071;28;20036;-72
2023/09/19 09:15:03;;;;;;;7.53;1.70;;;;;;;21.94;65.29;100112.97;5222151;28;20095;-72
2023/09/19 09:17:34;;;;;;;6.72;1.52;;;;;;;20.91;67.54;100123.00;5217568;28;20025;-71
2023/09/19 09:20:08;;;;;;;8.10;1.48;;;;;;;21.44;66.88;100119.22;5225254;28;20035;-72
2023/09/19 09:22:44;;;;;;;6.45;1.45;;;;;;;21.18;68.39;100117.97;5220011;28;20025;-72
2023/09/19 09:25:18;;;;;;;14.07;1.83;;;;;;;20.89;67.63;100122.31;5211940;28;20577;-72
2023/09/19 09:28:08;;;;;;;5.70;1.33;;;;;;;21.16;67.99;100126.09;5224021;28;20189;-72
2023/09/19 09:30:39;;;;;;;6.18;1.63;;;;;;;21.03;67.91;100137.94;5219220;28;20050;-72
2023/09/19 09:33:15;;;;;;;8.63;1.60;;;;;;;21.17;68.68;100132.25;5218406;28;20050;-72
2023/09/19 09:35:52;;;;;;;8.50;1.73;;;;;;;20.94;68.95;100128.06;5217365;28;20647;-72
2023/09/19 09:38:28;;;;;;;3.88;1.50;;;;;;;21.17;68.16;100137.56;5212165;28;20512;-72
2023/09/19 09:41:06;;;;;;;9.30;1.70;;;;;;;20.43;69.00;100134.25;5220678;28;20037;-72
2023/09/19 09:43:40;;;;;;;5.93;1.50;;;;;;;20.40;68.35;100140.63;5211909;28;20037;-72
2023/09/19 09:52:24;;;;;;;6.45;1.85;;;;;;;19.93;70.43;100132.19;5218187;28;20436;-72
2023/09/19 09:55:07;;;;;;;7.28;1.20;;;;;;;20.13;68.97;100126.13;5218932;28;20430;-72
2023/09/19 09:57:40;;;;;;;5.35;1.58;;;;;;;20.11;69.75;100120.94;5211986;28;20041;-71
2023/09/19 10:02:44;;;;;;;6.65;1.52;;;;;;;20.70;69.29;100128.28;5212753;28;20021;-71
2023/09/19 10:05:28;;;;;;;6.65;1.90;;;;;;;20.46;70.15;100129.50;5212247;28;20461;-72
2023/09/19 10:08:12;;;;;;;7.32;1.42;;;;;;;20.77;70.67;100128.63;5214228;28;20394;-72
2023/09/19 10:13:18;;;;;;;5.85;1.30;;;;;;;20.81;69.24;100128.25;5220026;28;20036;-72
2023/09/19 10:15:54;;;;;;;7.75;1.10;;;;;;;20.28;68.81;100120.41;5212189;28;20102;-72
2023/09/19 10:18:27;;;;;;;9.27;1.40;;;;;;;20.04;69.87;100145.44;5221274;28;20516;-71
2023/09/19 10:20:59;;;;;;;8.88;1.35;;;;;;;20.14;69.40;100139.25;5207688;28;20240;-72
2023/09/19 10:23:34;;;;;;;4.15;1.10;;;;;;;20.27;70.24;100145.25;5218600;28;20083;-72
2023/09/19 10:26:05;;;;;;;7.80;1.87;;;;;;;20.48;71.92;100142.66;5214589;28;20039;-72
2023/09/19 10:28:38;;;;;;;8.45;1.30;;;;;;;20.20;71.45;100148.53;5220065;28;20039;-72
2023/09/19 10:31:09;;;;;;;8.45;1.65;;;;;;;20.04;70.23;100145.44;5218426;28;20044;-72
2023/09/19 10:33:41;;;;;;;6.20;1.30;;;;;;;20.34;69.83;100146.47;5218132;28;20577;-71
2023/09/19 10:36:13;;;;;;;5.70;1.48;;;;;;;20.25;70.37;100152.50;5219768;28;20035;-72
2023/09/19 10:38:45;;;;;;;7.40;1.55;;;;;;;19.94;71.85;100149.78;5220411;28;20098;-72
2023/09/19 10:41:19;;;;;;;6.60;1.40;;;;;;;20.04;71.59;100156.91;5219707;28;20116;-72
2023/09/19 10:43:50;;;;;;;4.75;1.30;;;;;;;20.17;73.03;100152.31;5216650;28;20086;-72
2023/09/19 10:46:21;;;;;;;5.78;1.50;;;;;;;20.17;72.57;100162.06;5225070;28;20028;-71
2023/09/19 10:48:54;;;;;;;4.78;1.50;;;;;;;19.94;73.28;100161.22;5219496;28;20036;-72
2023/09/19 10:51:31;;;;;;;9.75;1.30;;;;;;;19.88;73.22;100167.03;5220429;28;20787;-71
2023/09/19 10:54:11;;;;;;;8.82;1.65;;;;;;;19.94;72.42;100157.75;5221992;28;20037;-72
2023/09/19 10:56:48;;;;;;;6.70;1.65;;;;;;;20.19;73.89;100158.31;5222181;28;20020;-72
2023/09/19 10:59:24;;;;;;;7.47;1.70;;;;;;;20.17;72.51;100152.31;5218131;28;20020;-72
2023/09/19 11:01:57;;;;;;;7.72;1.45;;;;;;;20.39;72.18;100154.03;5214501;28;20497;-72
2023/09/19 11:04:35;;;;;;;3.95;1.20;;;;;;;20.62;70.89;100145.84;5223311;28;20039;-72
2023/09/19 11:07:11;;;;;;;5.95;1.30;;;;;;;20.43;71.98;100143.03;5219179;28;20033;-72
2023/09/19 11:09:47;;;;;;;8.02;1.55;;;;;;;20.51;73.97;100145.88;5220077;28;20052;-72
2023/09/19 11:12:45;;;;;;;5.72;1.48;;;;;;;20.49;72.02;100144.34;5209429;28;20021;-72
2023/09/19 11:15:53;;;;;;;5.13;1.40;;;;;;;20.44;72.53;100147.38;5214662;28;20039;-72
2023/09/19 11:18:42;;;;;;;6.18;1.63;;;;;;;20.19;72.13;100147.72;5210758;28;20058;-71
2023/09/19 11:21:29;;;;;;;8.55;1.73;;;;;;;20.67;71.98;100140.16;5211010;28;20266;-72
2023/09/19 11:24:09;;;;;;;6.93;1.80;;;;;;;20.49;70.87;100153.13;5221179;28;20060;-72
2023/09/19 11:26:47;;;;;;;11.52;2.10;;;;;;;20.43;71.65;100150.16;5220845;28;20028;-71
2023/09/19 11:29:33;;;;;;;7.10;1.90;;;;;;;20.42;71.28;100143.13;5214181;28;20025;-72
2023/09/19 11:32:05;;;;;;;;;;;;;;;20.45;71.27;100137.59;5214328;28;20039;-72
2023/09/19 11:34:36;;;;;;;6.25;2.25;;;;;;;20.48;71.35;100137.34;5221214;28;19962;-72
2023/09/19 11:37:15;;;;;;;4.60;1.77;;;;;;;20.63;71.39;100136.06;5218605;28;20032;-72
2023/09/19 11:40:16;;;;;;;5.00;1.50;;;;;;;20.44;70.30;100139.41;5221302;28;20107;-72
2023/09/19 11:42:53;;;;;;;6.82;1.58;;;;;;;20.19;70.43;100147.72;5221419;28;20701;-72
2023/09/19 11:45:50;;;;;;;8.55;1.70;;;;;;;20.23;71.47;100127.03;5220811;28;20032;-71
2023/09/19 11:48:25;;;;;;;;;;;;;;;20.65;70.66;100129.63;5222902;28;20028;-72
2023/09/19 11:50:57;;;;;;;7.20;1.63;;;;;;;20.47;69.95;100119.72;5224759;28;19917;-71
2023/09/19 11:53:33;;;;;;;4.88;1.25;;;;;;;20.47;68.31;100125.03;5224487;28;20485;-72
2023/09/19 11:56:07;;;;;;;6.22;1.40;;;;;;;20.61;69.15;100120.25;5225702;28;20040;-72
2023/09/19 11:58:37;;;;;;;9.07;1.98;;;;;;;20.63;69.75;100117.47;5225844;28;20163;-71
2023/09/19 12:01:20;;;;;;;7.55;1.70;;;;;;;20.23;68.65;100130.56;5222155;28;20032;-72
2023/09/19 12:03:54;;;;;;;10.23;1.75;;;;;;;20.42;69.27;100128.06;5225117;28;20039;-71
2023/09/19 12:06:26;;;;;;;7.85;1.63;;;;;;;20.75;69.59;100122.59;5218360;28;20780;-71
2023/09/19 12:08:59;;;;;;;7.05;1.67;;;;;;;21.01;70.32;100123.91;5227689;28;20040;-72